sensor_id;sensor_type;location;lat;lon;timestamp;pressure;altitude;pressure_sealevel;temperature;humidity
17781;BME280;8498;52.516;13.790;2022-12-07T00:01:25;100736.66;;;5.10;98.18
17781;BME280;8498;52.516;13.790;2022-12-07T00:06:51;100734.59;;;4.98;97.75
17781;BME280;8498;52.516;13.790;2022-12-07T00:12:14;100721.56;;;4.95;98.27
17781;BME280;8498;52.516;13.790;2022-12-07T00:17:36;100718.06;;;4.95;98.28
17781;BME280;8498;52.516;13.790;2022-12-07T00:22:58;100713.00;;;4.90;98.75
17781;BME280;8498;52.516;13.790;2022-12-07T00:28:21;100710.38;;;4.70;99.21
17781;BME280;8498;52.516;13.790;2022-12-07T00:33:45;100720.28;;;4.45;98.14
17781;BME280;8498;52.516;13.790;2022-12-07T00:39:07;100714.72;;;4.51;98.26
17781;BME280;8498;52.516;13.790;2022-12-07T00:44:30;100716.78;;;4.64;97.42
17781;BME280;8498;52.516;13.790;2022-12-07T00:49:52;100713.28;;;4.64;96.41
17781;BME280;8498;52.516;13.790;2022-12-07T00:55:15;100727.16;;;4.67;96.23
17781;BME280;8498;52.516;13.790;2022-12-07T01:00:39;100705.28;;;4.67;95.93
17781;BME280;8498;52.516;13.790;2022-12-07T01:06:02;100705.06;;;4.51;95.43
17781;BME280;8498;52.516;13.790;2022-12-07T01:11:28;100704.50;;;4.45;95.45
17781;BME280;8498;52.516;13.790;2022-12-07T01:16:51;100697.91;;;4.34;95.12
17781;BME280;8498;52.516;13.790;2022-12-07T01:22:14;100698.28;;;4.25;95.35
17781;BME280;8498;52.516;13.790;2022-12-07T01:27:36;100694.72;;;4.26;95.18
17781;BME280;8498;52.516;13.790;2022-12-07T01:32:59;100690.19;;;4.30;94.75
17781;BME280;8498;52.516;13.790;2022-12-07T01:38:21;100690.31;;;4.27;94.04
17781;BME280;8498;52.516;13.790;2022-12-07T01:49:40;100672.38;;;4.36;92.54
17781;BME280;8498;52.516;13.790;2022-12-07T01:55:07;100665.94;;;4.23;91.64
17781;BME280;8498;52.516;13.790;2022-12-07T02:00:30;100665.22;;;4.20;91.27
17781;BME280;8498;52.516;13.790;2022-12-07T02:05:53;100659.88;;;4.21;91.08
17781;BME280;8498;52.516;13.790;2022-12-07T02:11:16;100660.75;;;4.22;90.85
17781;BME280;8498;52.516;13.790;2022-12-07T02:16:47;100656.59;;;4.16;90.17
17781;BME280;8498;52.516;13.790;2022-12-07T02:33:31;100657.13;;;4.04;92.12
17781;BME280;8498;52.516;13.790;2022-12-07T02:39:01;100645.28;;;3.94;91.92
17781;BME280;8498;52.516;13.790;2022-12-07T02:44:27;100628.31;;;3.81;92.01
17781;BME280;8498;52.516;13.790;2022-12-07T02:49:51;100646.38;;;3.66;91.49
17781;BME280;8498;52.516;13.790;2022-12-07T02:55:16;100628.63;;;3.73;91.80
17781;BME280;8498;52.516;13.790;2022-12-07T03:01:37;100626.72;;;3.77;91.38
17781;BME280;8498;52.516;13.790;2022-12-07T03:06:42;100612.91;;;3.72;90.87
17781;BME280;8498;52.516;13.790;2022-12-07T03:12:20;100601.84;;;3.63;90.62
17781;BME280;8498;52.516;13.790;2022-12-07T03:17:46;100596.84;;;3.57;91.22
17781;BME280;8498;52.516;13.790;2022-12-07T03:23:10;100597.06;;;3.53;91.17
17781;BME280;8498;52.516;13.790;2022-12-07T03:28:37;100592.53;;;3.35;91.59
17781;BME280;8498;52.516;13.790;2022-12-07T03:34:03;100570.81;;;3.31;92.16
17781;BME280;8498;52.516;13.790;2022-12-07T03:40:10;100563.91;;;3.28;91.88
17781;BME280;8498;52.516;13.790;2022-12-07T03:45:45;100563.34;;;3.20;92.28
17781;BME280;8498;52.516;13.790;2022-12-07T03:51:20;100546.88;;;3.17;92.33
17781;BME280;8498;52.516;13.790;2022-12-07T03:56:44;100544.50;;;3.11;92.29
17781;BME280;8498;52.516;13.790;2022-12-07T04:02:11;100525.88;;;3.17;92.55
17781;BME280;8498;52.516;13.790;2022-12-07T04:07:35;100527.47;;;3.21;92.62
17781;BME280;8498;52.516;13.790;2022-12-07T04:12:57;100514.13;;;3.25;92.88
17781;BME280;8498;52.516;13.790;2022-12-07T04:18:20;100504.75;;;3.20;93.08
17781;BME280;8498;52.516;13.790;2022-12-07T04:23:42;100503.91;;;3.19;93.52
17781;BME280;8498;52.516;13.790;2022-12-07T04:29:04;100496.09;;;3.18;93.28
17781;BME280;8498;52.516;13.790;2022-12-07T04:34:28;100500.00;;;3.08;93.67
17781;BME280;8498;52.516;13.790;2022-12-07T04:39:51;100491.22;;;3.09;94.55
17781;BME280;8498;52.516;13.790;2022-12-07T04:45:13;100488.88;;;3.01;95.05
17781;BME280;8498;52.516;13.790;2022-12-07T04:50:36;100483.75;;;2.98;95.60
17781;BME280;8498;52.516;13.790;2022-12-07T04:56:07;100478.75;;;2.92;96.07
17781;BME280;8498;52.516;13.790;2022-12-07T05:01:30;100473.38;;;2.95;96.87
17781;BME280;8498;52.516;13.790;2022-12-07T05:06:52;100457.16;;;2.85;97.64
17781;BME280;8498;52.516;13.790;2022-12-07T05:12:15;100459.66;;;2.88;97.95
17781;BME280;8498;52.516;13.790;2022-12-07T05:17:37;100454.47;;;2.87;98.43
17781;BME280;8498;52.516;13.790;2022-12-07T05:23:00;100449.78;;;2.95;98.81
17781;BME280;8498;52.516;13.790;2022-12-07T05:28:23;100451.16;;;3.04;98.82
17781;BME280;8498;52.516;13.790;2022-12-07T05:33:46;100449.44;;;3.03;99.12
17781;BME280;8498;52.516;13.790;2022-12-07T05:39:09;100445.69;;;3.10;99.27
17781;BME280;8498;52.516;13.790;2022-12-07T05:44:31;100438.66;;;3.10;99.00
17781;BME280;8498;52.516;13.790;2022-12-07T05:49:54;100431.75;;;3.08;99.21
17781;BME280;8498;52.516;13.790;2022-12-07T05:55:16;100419.88;;;2.99;99.31
17781;BME280;8498;52.516;13.790;2022-12-07T06:00:39;100426.25;;;3.14;99.20
17781;BME280;8498;52.516;13.790;2022-12-07T06:06:01;100417.22;;;3.21;99.19
17781;BME280;8498;52.516;13.790;2022-12-07T06:11:23;100418.84;;;3.23;99.40
17781;BME280;8498;52.516;13.790;2022-12-07T06:17:05;100412.88;;;3.20;99.64
17781;BME280;8498;52.516;13.790;2022-12-07T06:22:28;100389.78;;;3.28;100.00
17781;BME280;8498;52.516;13.790;2022-12-07T06:27:50;100387.16;;;3.28;100.00
17781;BME280;8498;52.516;13.790;2022-12-07T06:33:13;100376.25;;;3.37;100.00
17781;BME280;8498;52.516;13.790;2022-12-07T06:38:35;100360.31;;;3.42;100.00
17781;BME280;8498;52.516;13.790;2022-12-07T06:43:58;100371.75;;;3.41;100.00
17781;BME280;8498;52.516;13.790;2022-12-07T06:49:21;100378.06;;;3.55;100.00
17781;BME280;8498;52.516;13.790;2022-12-07T06:54:43;100378.44;;;3.66;100.00
17781;BME280;8498;52.516;13.790;2022-12-07T07:00:06;100381.75;;;3.72;100.00
17781;BME280;8498;52.516;13.790;2022-12-07T07:05:28;100372.34;;;3.66;100.00
17781;BME280;8498;52.516;13.790;2022-12-07T07:10:51;100373.56;;;3.78;100.00
17781;BME280;8498;52.516;13.790;2022-12-07T07:16:13;100375.94;;;3.84;100.00
17781;BME280;8498;52.516;13.790;2022-12-07T07:21:36;100378.09;;;3.94;100.00
17781;BME280;8498;52.516;13.790;2022-12-07T07:26:58;100372.16;;;3.89;100.00
17781;BME280;8498;52.516;13.790;2022-12-07T07:32:22;100369.66;;;4.05;100.00
17781;BME280;8498;52.516;13.790;2022-12-07T07:37:44;100366.00;;;4.09;100.00
17781;BME280;8498;52.516;13.790;2022-12-07T07:43:06;100359.38;;;4.19;100.00
17781;BME280;8498;52.516;13.790;2022-12-07T07:48:29;100360.50;;;4.32;100.00
17781;BME280;8498;52.516;13.790;2022-12-07T07:53:51;100359.28;;;4.39;100.00
17781;BME280;8498;52.516;13.790;2022-12-07T07:59:14;100361.63;;;4.46;100.00
17781;BME280;8498;52.516;13.790;2022-12-07T08:04:37;100358.56;;;4.55;100.00
17781;BME280;8498;52.516;13.790;2022-12-07T08:09:59;100355.63;;;4.61;100.00
17781;BME280;8498;52.516;13.790;2022-12-07T08:15:23;100360.94;;;4.95;100.00
17781;BME280;8498;52.516;13.790;2022-12-07T08:20:45;100351.88;;;4.84;100.00
17781;BME280;8498;52.516;13.790;2022-12-07T08:26:13;100369.75;;;4.94;98.48
17781;BME280;8498;52.516;13.790;2022-12-07T08:31:36;100362.06;;;4.90;96.91
17781;BME280;8498;52.516;13.790;2022-12-07T08:36:58;100354.75;;;4.96;95.83
17781;BME280;8498;52.516;13.790;2022-12-07T08:42:21;100357.69;;;5.07;94.82
17781;BME280;8498;52.516;13.790;2022-12-07T08:47:58;100357.69;;;5.07;92.92
17781;BME280;8498;52.516;13.790;2022-12-07T08:53:24;100362.41;;;5.18;92.95
17781;BME280;8498;52.516;13.790;2022-12-07T08:58:47;100371.59;;;5.09;92.41
17781;BME280;8498;52.516;13.790;2022-12-07T09:04:10;100375.78;;;5.31;92.18
17781;BME280;8498;52.516;13.790;2022-12-07T09:09:32;100385.16;;;5.02;91.06
17781;BME280;8498;52.516;13.790;2022-12-07T09:14:55;100390.16;;;4.89;91.56
17781;BME280;8498;52.516;13.790;2022-12-07T09:20:18;100380.28;;;5.11;90.54
17781;BME280;8498;52.516;13.790;2022-12-07T09:25:48;100378.44;;;5.13;88.16
17781;BME280;8498;52.516;13.790;2022-12-07T09:31:10;100386.31;;;5.31;86.81
17781;BME280;8498;52.516;13.790;2022-12-07T09:36:44;100386.81;;;5.39;86.19
17781;BME280;8498;52.516;13.790;2022-12-07T09:42:07;100390.38;;;5.38;84.99
17781;BME280;8498;52.516;13.790;2022-12-07T09:47:30;100395.00;;;5.33;85.24
17781;BME280;8498;52.516;13.790;2022-12-07T09:53:08;100394.84;;;5.36;85.99
17781;BME280;8498;52.516;13.790;2022-12-07T09:58:32;100390.81;;;5.46;85.04
17781;BME280;8498;52.516;13.790;2022-12-07T10:04:02;100401.03;;;5.35;82.81
17781;BME280;8498;52.516;13.790;2022-12-07T10:09:27;100415.75;;;5.22;81.72
17781;BME280;8498;52.516;13.790;2022-12-07T10:15:01;100413.28;;;5.36;81.33
17781;BME280;8498;52.516;13.790;2022-12-07T10:20:39;100409.47;;;5.41;80.76
17781;BME280;8498;52.516;13.790;2022-12-07T10:31:54;100418.53;;;5.01;80.72
17781;BME280;8498;52.516;13.790;2022-12-07T10:37:20;100423.19;;;4.96;79.59
17781;BME280;8498;52.516;13.790;2022-12-07T10:43:00;100425.75;;;4.79;79.53
17781;BME280;8498;52.516;13.790;2022-12-07T10:59:50;100422.25;;;5.32;77.42
17781;BME280;8498;52.516;13.790;2022-12-07T11:16:21;100427.97;;;5.74;75.34
17781;BME280;8498;52.516;13.790;2022-12-07T11:21:56;100412.03;;;5.43;76.21
17781;BME280;8498;52.516;13.790;2022-12-07T11:27:37;100413.19;;;5.20;77.11
17781;BME280;8498;52.516;13.790;2022-12-07T11:38:35;100417.31;;;5.43;77.39
17781;BME280;8498;52.516;13.790;2022-12-07T11:44:07;100406.91;;;5.40;78.13
17781;BME280;8498;52.516;13.790;2022-12-07T11:49:40;100408.03;;;5.19;78.54
17781;BME280;8498;52.516;13.790;2022-12-07T11:55:19;100412.13;;;5.24;78.28
17781;BME280;8498;52.516;13.790;2022-12-07T12:00:43;100409.16;;;5.30;77.85
17781;BME280;8498;52.516;13.790;2022-12-07T12:06:06;100402.34;;;5.43;77.46
17781;BME280;8498;52.516;13.790;2022-12-07T12:22:56;100379.78;;;5.55;78.07
17781;BME280;8498;52.516;13.790;2022-12-07T12:33:56;100371.69;;;5.75;77.06
17781;BME280;8498;52.516;13.790;2022-12-07T12:39:19;100376.47;;;5.84;76.84
17781;BME280;8498;52.516;13.790;2022-12-07T12:45:04;100365.34;;;5.79;77.29
17781;BME280;8498;52.516;13.790;2022-12-07T12:56:09;100364.22;;;5.83;77.58
17781;BME280;8498;52.516;13.790;2022-12-07T13:01:42;100371.00;;;5.72;77.84
17781;BME280;8498;52.516;13.790;2022-12-07T13:07:10;100374.69;;;5.85;77.87
17781;BME280;8498;52.516;13.790;2022-12-07T13:12:34;100374.09;;;5.80;77.51
17781;BME280;8498;52.516;13.790;2022-12-07T13:17:58;100368.13;;;5.76;77.77
17781;BME280;8498;52.516;13.790;2022-12-07T13:28:54;100373.63;;;5.72;78.63
17781;BME280;8498;52.516;13.790;2022-12-07T13:34:30;100368.47;;;5.70;78.89
17781;BME280;8498;52.516;13.790;2022-12-07T13:40:12;100365.97;;;5.67;78.95
17781;BME280;8498;52.516;13.790;2022-12-07T13:45:39;100358.16;;;5.66;79.43
17781;BME280;8498;52.516;13.790;2022-12-07T13:51:22;100360.56;;;5.70;79.45
17781;BME280;8498;52.516;13.790;2022-12-07T13:56:51;100358.78;;;5.71;79.53
17781;BME280;8498;52.516;13.790;2022-12-07T14:02:27;100370.47;;;5.65;79.59
17781;BME280;8498;52.516;13.790;2022-12-07T14:08:01;100374.03;;;5.64;79.50
17781;BME280;8498;52.516;13.790;2022-12-07T14:13:32;100360.63;;;5.69;79.19
17781;BME280;8498;52.516;13.790;2022-12-07T14:19:00;100367.41;;;5.57;77.36
17781;BME280;8498;52.516;13.790;2022-12-07T14:24:23;100368.63;;;5.67;77.34
17781;BME280;8498;52.516;13.790;2022-12-07T14:29:45;100356.88;;;5.73;77.22
17781;BME280;8498;52.516;13.790;2022-12-07T14:35:11;100368.19;;;5.59;77.86
17781;BME280;8498;52.516;13.790;2022-12-07T14:40:34;100360.09;;;5.62;76.79
17781;BME280;8498;52.516;13.790;2022-12-07T14:45:56;100349.38;;;5.49;76.82
17781;BME280;8498;52.516;13.790;2022-12-07T14:51:19;100338.72;;;5.51;76.53
17781;BME280;8498;52.516;13.790;2022-12-07T14:57:01;100337.03;;;5.50;76.69
17781;BME280;8498;52.516;13.790;2022-12-07T15:02:24;100335.56;;;5.44;76.71
17781;BME280;8498;52.516;13.790;2022-12-07T15:07:48;100337.97;;;5.49;78.14
17781;BME280;8498;52.516;13.790;2022-12-07T15:13:10;100332.59;;;5.50;79.42
17781;BME280;8498;52.516;13.790;2022-12-07T15:18:51;100334.94;;;5.57;80.26
17781;BME280;8498;52.516;13.790;2022-12-07T15:24:33;100352.84;;;5.33;81.91
17781;BME280;8498;52.516;13.790;2022-12-07T15:29:56;100354.72;;;5.31;82.57
17781;BME280;8498;52.516;13.790;2022-12-07T15:35:19;100336.78;;;5.04;83.80
17781;BME280;8498;52.516;13.790;2022-12-07T15:40:41;100333.59;;;5.15;84.22
17781;BME280;8498;52.516;13.790;2022-12-07T15:46:03;100330.41;;;5.26;83.60
17781;BME280;8498;52.516;13.790;2022-12-07T15:51:27;100339.56;;;5.19;83.13
17781;BME280;8498;52.516;13.790;2022-12-07T15:56:49;100340.19;;;5.06;82.66
17781;BME280;8498;52.516;13.790;2022-12-07T16:02:12;100345.47;;;5.06;82.92
17781;BME280;8498;52.516;13.790;2022-12-07T16:07:35;100346.13;;;5.10;82.42
17781;BME280;8498;52.516;13.790;2022-12-07T16:12:57;100351.31;;;5.11;82.50
17781;BME280;8498;52.516;13.790;2022-12-07T16:18:20;100350.41;;;5.12;82.49
17781;BME280;8498;52.516;13.790;2022-12-07T16:23:42;100339.88;;;5.12;82.29
17781;BME280;8498;52.516;13.790;2022-12-07T16:29:04;100341.56;;;5.13;82.74
17781;BME280;8498;52.516;13.790;2022-12-07T16:34:28;100369.69;;;5.13;82.74
17781;BME280;8498;52.516;13.790;2022-12-07T16:39:50;100389.38;;;3.57;87.78
17781;BME280;8498;52.516;13.790;2022-12-07T16:45:12;100355.91;;;3.42;90.44
17781;BME280;8498;52.516;13.790;2022-12-07T16:50:42;100369.75;;;3.46;90.93
17781;BME280;8498;52.516;13.790;2022-12-07T16:56:15;100368.75;;;3.48;91.07
17781;BME280;8498;52.516;13.790;2022-12-07T17:01:38;100360.41;;;3.59;91.41
17781;BME280;8498;52.516;13.790;2022-12-07T17:07:01;100344.09;;;3.52;91.03
17781;BME280;8498;52.516;13.790;2022-12-07T17:12:23;100354.88;;;3.65;90.99
17781;BME280;8498;52.516;13.790;2022-12-07T17:17:51;100361.84;;;3.85;90.33
17781;BME280;8498;52.516;13.790;2022-12-07T17:23:14;100354.31;;;3.77;90.03
17781;BME280;8498;52.516;13.790;2022-12-07T17:28:37;100358.97;;;3.91;89.71
17781;BME280;8498;52.516;13.790;2022-12-07T17:34:01;100373.94;;;4.07;88.60
17781;BME280;8498;52.516;13.790;2022-12-07T17:39:24;100367.47;;;3.96;88.37
17781;BME280;8498;52.516;13.790;2022-12-07T17:44:46;100365.44;;;3.84;88.23
17781;BME280;8498;52.516;13.790;2022-12-07T17:50:10;100364.22;;;3.91;87.97
17781;BME280;8498;52.516;13.790;2022-12-07T17:55:32;100368.81;;;3.86;87.39
17781;BME280;8498;52.516;13.790;2022-12-07T18:01:14;100374.06;;;3.86;87.50
17781;BME280;8498;52.516;13.790;2022-12-07T18:06:44;100373.22;;;3.85;86.82
17781;BME280;8498;52.516;13.790;2022-12-07T18:12:13;100378.47;;;3.85;86.72
17781;BME280;8498;52.516;13.790;2022-12-07T18:17:36;100367.28;;;3.82;86.46
17781;BME280;8498;52.516;13.790;2022-12-07T18:22:58;100382.31;;;3.78;85.98
17781;BME280;8498;52.516;13.790;2022-12-07T18:28:21;100378.47;;;3.85;86.08
17781;BME280;8498;52.516;13.790;2022-12-07T18:33:46;100379.81;;;3.75;86.45
17781;BME280;8498;52.516;13.790;2022-12-07T18:39:09;100376.63;;;3.68;86.51
17781;BME280;8498;52.516;13.790;2022-12-07T18:44:31;100377.41;;;3.71;86.51
17781;BME280;8498;52.516;13.790;2022-12-07T18:49:53;100381.38;;;3.60;86.69
17781;BME280;8498;52.516;13.790;2022-12-07T18:55:16;100371.44;;;3.67;86.39
17781;BME280;8498;52.516;13.790;2022-12-07T19:00:38;100381.13;;;3.65;86.44
17781;BME280;8498;52.516;13.790;2022-12-07T19:06:05;100384.78;;;3.62;86.64
17781;BME280;8498;52.516;13.790;2022-12-07T19:11:31;100395.53;;;3.56;86.74
17781;BME280;8498;52.516;13.790;2022-12-07T19:17:12;100398.28;;;3.53;86.71
17781;BME280;8498;52.516;13.790;2022-12-07T19:22:35;100389.78;;;3.48;86.90
17781;BME280;8498;52.516;13.790;2022-12-07T19:27:57;100400.69;;;3.39;86.96
17781;BME280;8498;52.516;13.790;2022-12-07T19:33:21;100402.38;;;3.40;87.06
17781;BME280;8498;52.516;13.790;2022-12-07T19:38:43;100406.31;;;3.30;87.15
17781;BME280;8498;52.516;13.790;2022-12-07T19:44:10;100397.38;;;3.14;87.33
17781;BME280;8498;52.516;13.790;2022-12-07T19:49:34;100405.00;;;3.20;86.69
17781;BME280;8498;52.516;13.790;2022-12-07T19:54:57;100406.25;;;3.11;86.57
17781;BME280;8498;52.516;13.790;2022-12-07T20:00:19;100408.66;;;3.16;86.49
17781;BME280;8498;52.516;13.790;2022-12-07T20:05:41;100401.84;;;3.12;85.95
17781;BME280;8498;52.516;13.790;2022-12-07T20:11:04;100410.56;;;3.12;86.18
17781;BME280;8498;52.516;13.790;2022-12-07T20:16:46;100406.50;;;3.05;86.12
17781;BME280;8498;52.516;13.790;2022-12-07T20:22:09;100410.28;;;2.98;86.01
17781;BME280;8498;52.516;13.790;2022-12-07T20:27:32;100408.72;;;2.94;86.63
17781;BME280;8498;52.516;13.790;2022-12-07T20:32:54;100412.31;;;2.91;86.51
17781;BME280;8498;52.516;13.790;2022-12-07T20:38:17;100414.06;;;2.91;86.40
17781;BME280;8498;52.516;13.790;2022-12-07T20:43:39;100415.31;;;2.82;86.14
17781;BME280;8498;52.516;13.790;2022-12-07T20:49:02;100420.38;;;2.87;86.54
17781;BME280;8498;52.516;13.790;2022-12-07T20:54:24;100415.06;;;2.88;85.96
17781;BME280;8498;52.516;13.790;2022-12-07T20:59:46;100416.16;;;2.83;85.74
17781;BME280;8498;52.516;13.790;2022-12-07T21:05:09;100415.25;;;2.84;85.48
17781;BME280;8498;52.516;13.790;2022-12-07T21:10:32;100417.13;;;2.80;85.78
17781;BME280;8498;52.516;13.790;2022-12-07T21:15:54;100418.97;;;2.78;85.91
17781;BME280;8498;52.516;13.790;2022-12-07T21:21:18;100419.22;;;2.72;86.01
17781;BME280;8498;52.516;13.790;2022-12-07T21:26:41;100426.38;;;2.69;86.50
17781;BME280;8498;52.516;13.790;2022-12-07T21:32:03;100426.09;;;2.53;87.03
17781;BME280;8498;52.516;13.790;2022-12-07T21:37:27;100444.88;;;2.42;87.65
17781;BME280;8498;52.516;13.790;2022-12-07T21:42:52;100435.44;;;2.38;87.61
17781;BME280;8498;52.516;13.790;2022-12-07T21:48:15;100427.97;;;2.04;88.86
17781;BME280;8498;52.516;13.790;2022-12-07T21:53:39;100434.81;;;1.85;89.75
17781;BME280;8498;52.516;13.790;2022-12-07T21:59:07;100436.22;;;1.70;90.83
17781;BME280;8498;52.516;13.790;2022-12-07T22:04:30;100433.53;;;1.72;91.70
17781;BME280;8498;52.516;13.790;2022-12-07T22:09:53;100438.69;;;1.75;92.25
17781;BME280;8498;52.516;13.790;2022-12-07T22:15:15;100440.16;;;1.82;92.80
17781;BME280;8498;52.516;13.790;2022-12-07T22:20:37;100438.66;;;1.98;93.06
17781;BME280;8498;52.516;13.790;2022-12-07T22:26:04;100440.22;;;2.27;93.38
17781;BME280;8498;52.516;13.790;2022-12-07T22:31:27;100442.31;;;2.63;93.35
17781;BME280;8498;52.516;13.790;2022-12-07T22:36:50;100437.88;;;2.65;92.14
17781;BME280;8498;52.516;13.790;2022-12-07T22:42:13;100436.28;;;2.61;92.94
17781;BME280;8498;52.516;13.790;2022-12-07T22:47:35;100429.22;;;2.63;93.06
17781;BME280;8498;52.516;13.790;2022-12-07T22:52:58;100428.25;;;2.65;92.99
17781;BME280;8498;52.516;13.790;2022-12-07T22:58:21;100424.13;;;2.60;93.44
17781;BME280;8498;52.516;13.790;2022-12-07T23:03:46;100424.38;;;2.52;93.28
17781;BME280;8498;52.516;13.790;2022-12-07T23:09:10;100419.03;;;2.55;93.40
17781;BME280;8498;52.516;13.790;2022-12-07T23:14:36;100423.53;;;2.51;92.98
17781;BME280;8498;52.516;13.790;2022-12-07T23:19:59;100417.59;;;2.48;93.33
17781;BME280;8498;52.516;13.790;2022-12-07T23:25:22;100406.41;;;2.43;93.18
17781;BME280;8498;52.516;13.790;2022-12-07T23:30:44;100409.44;;;2.32;93.08
17781;BME280;8498;52.516;13.790;2022-12-07T23:36:24;100399.00;;;2.31;93.58
17781;BME280;8498;52.516;13.790;2022-12-07T23:41:49;100392.00;;;2.31;93.76
17781;BME280;8498;52.516;13.790;2022-12-07T23:47:11;100401.88;;;2.25;94.08
17781;BME280;8498;52.516;13.790;2022-12-07T23:52:33;100399.31;;;2.23;93.86
17781;BME280;8498;52.516;13.790;2022-12-07T23:57:56;100386.25;;;2.21;94.59
